Wetterdaten: Woche 02.02.09 - 08.02.09 (KW6)
Datum Zeit Temp. A. Feuchte A. Luftdruck Regen Wind Richtung Taupunkt Windchill Windben
02.02.2009 00:00 -0,7 C 92 % 1015,8 hPa 0,0 l/m 2,6 km/h O -1,9 C -0,7 C 10,1 km/h
02.02.2009 01:00 -0,6 C 92 % 1015,7 hPa 0,0 l/m 1,9 km/h SO -1,7 C -0,6 C 8,0 km/h
02.02.2009 02:00 -0,4 C 92 % 1015,6 hPa 0,0 l/m 2,0 km/h SO -1,5 C -0,4 C 8,0 km/h
02.02.2009 03:00 -0,2 C 92 % 1015,5 hPa 0,0 l/m 2,3 km/h O -1,3 C -0,2 C 9,7 km/h
02.02.2009 04:00 -0,0 C 92 % 1015,3 hPa 0,0 l/m 1,7 km/h O-SO -1,2 C -0,0 C 6,4 km/h
02.02.2009 05:00 0,2 C 93 % 1015,2 hPa 0,0 l/m 2,7 km/h S-SO -0,8 C 0,2 C 8,4 km/h
02.02.2009 06:00 0,3 C 92 % 1015,2 hPa 0,0 l/m 3,7 km/h S-SO -0,8 C 0,3 C 9,3 km/h
02.02.2009 07:00 0,4 C 92 % 1015,3 hPa 0,0 l/m 3,8 km/h S-SO -0,7 C 0,4 C 13,7 km/h
02.02.2009 08:00 0,4 C 93 % 1015,7 hPa 0,0 l/m 3,4 km/h N-NO -0,6 C 0,4 C 13,3 km/h
02.02.2009 09:00 0,5 C 93 % 1015,8 hPa 0,3 l/m 4,1 km/h O-NO -0,5 C 0,5 C 17,3 km/h
02.02.2009 10:00 0,6 C 92 % 1016,1 hPa 0,3 l/m 3,6 km/h O -0,5 C 0,6 C 12,5 km/h
02.02.2009 11:00 0,7 C 92 % 1015,9 hPa 0,0 l/m 4,2 km/h SO -0,4 C 0,7 C 12,5 km/h
02.02.2009 12:00 0,9 C 91 % 1015,4 hPa 0,3 l/m 4,8 km/h NO -0,4 C 0,9 C 17,7 km/h
02.02.2009 13:00 1,0 C 91 % 1014,9 hPa 0,0 l/m 3,8 km/h SO -0,4 C 1,0 C 14,9 km/h
02.02.2009 14:00 1,0 C 90 % 1014,6 hPa 0,0 l/m 3,7 km/h O-NO -0,5 C 1,0 C 12,5 km/h
02.02.2009 15:00 1,0 C 90 % 1014,9 hPa 0,0 l/m 4,0 km/h O-SO -0,5 C 1,0 C 14,1 km/h
02.02.2009 16:00 0,9 C 90 % 1014,7 hPa 0,0 l/m 2,3 km/h SO -0,5 C 0,9 C 8,9 km/h
02.02.2009 17:00 1,1 C 89 % 1014,8 hPa 0,0 l/m 1,3 km/h SO -0,5 C 1,1 C 7,7 km/h
02.02.2009 18:00 1,2 C 89 % 1014,8 hPa 0,0 l/m 2,2 km/h O-SO -0,5 C 1,2 C 5,6 km/h
02.02.2009 19:00 1,3 C 89 % 1014,2 hPa 0,0 l/m 2,5 km/h O-SO -0,3 C 1,3 C 6,0 km/h
02.02.2009 20:00 1,2 C 89 % 1013,8 hPa 0,0 l/m 2,1 km/h O-SO -0,4 C 1,2 C 6,8 km/h
02.02.2009 21:00 1,2 C 89 % 1013,4 hPa 0,3 l/m 1,2 km/h SO -0,3 C 1,2 C 6,0 km/h
02.02.2009 22:00 0,8 C 91 % 1013,3 hPa 0,3 l/m 1,3 km/h SO -0,6 C 0,8 C 5,6 km/h
02.02.2009 23:00 0,6 C 92 % 1013,2 hPa 0,3 l/m 0,7 km/h SO -0,6 C 0,6 C 4,4 km/h
03.02.2009 00:00 0,4 C 92 % 1012,6 hPa 0,3 l/m 1,6 km/h O-SO -0,7 C 0,4 C 6,8 km/h
03.02.2009 01:00 0,4 C 92 % 1011,6 hPa 0,0 l/m 1,8 km/h S-SO -0,7 C 0,4 C 8,5 km/h
03.02.2009 02:00 0,5 C 93 % 1010,7 hPa 0,3 l/m 2,4 km/h O-SO -0,5 C 0,5 C 7,2 km/h
03.02.2009 03:00 0,7 C 93 % 1010,0 hPa 0,3 l/m 1,7 km/h O -0,3 C 0,7 C 6,0 km/h
03.02.2009 04:00 0,9 C 93 % 1009,3 hPa 0,6 l/m 2,7 km/h SO -0,1 C 0,9 C 8,0 km/h
03.02.2009 05:00 0,9 C 93 % 1008,8 hPa 0,0 l/m 2,0 km/h SO -0,1 C 0,9 C 8,4 km/h
03.02.2009 06:00 0,9 C 93 % 1008,7 hPa 0,6 l/m 3,3 km/h O -0,1 C 0,9 C 9,6 km/h
03.02.2009 07:00 0,9 C 93 % 1008,8 hPa 0,0 l/m 2,3 km/h SO -0,1 C 0,9 C 7,6 km/h
03.02.2009 08:00 0,9 C 93 % 1008,3 hPa 0,3 l/m 2,9 km/h O-SO -0,1 C 0,9 C 8,5 km/h
03.02.2009 09:00 1,0 C 93 % 1007,8 hPa 0,0 l/m 3,6 km/h O-SO -0,0 C 1,0 C 10,7 km/h
03.02.2009 10:00 1,2 C 93 % 1007,4 hPa 0,3 l/m 2,8 km/h O-SO 0,2 C 1,2 C 10,9 km/h
03.02.2009 11:00 1,3 C 94 % 1006,5 hPa 0,0 l/m 3,0 km/h S-SO 0,4 C 1,3 C 12,5 km/h
03.02.2009 12:00 1,3 C 94 % 1005,6 hPa 0,0 l/m 2,9 km/h O 0,4 C 1,3 C 13,3 km/h
03.02.2009 13:00 1,5 C 94 % 1004,8 hPa 0,0 l/m 3,0 km/h SO 0,6 C 1,5 C 12,9 km/h
03.02.2009 14:00 1,9 C 94 % 1004,3 hPa 0,0 l/m 2,8 km/h O-NO 1,0 C 1,9 C 13,3 km/h
03.02.2009 15:00 1,8 C 94 % 1003,6 hPa 0,0 l/m 4,0 km/h O-SO 1,0 C 1,8 C 14,9 km/h
03.02.2009 16:00 1,8 C 94 % 1002,9 hPa 0,0 l/m 4,4 km/h S-SO 0,9 C 1,8 C 14,9 km/h
03.02.2009 17:00 1,7 C 94 % 1002,9 hPa 0,0 l/m 2,8 km/h SO 0,8 C 1,7 C 8,4 km/h
03.02.2009 18:00 1,6 C 94 % 1002,6 hPa 0,0 l/m 1,0 km/h O-SO 0,7 C 1,6 C 4,8 km/h
03.02.2009 19:00 1,4 C 93 % 1002,5 hPa 0,0 l/m 0,5 km/h N 0,4 C 1,4 C 4,4 km/h
03.02.2009 20:00 1,1 C 93 % 1002,2 hPa 0,0 l/m 0,1 km/h N 0,1 C 1,1 C 2,0 km/h
03.02.2009 21:00 0,7 C 93 % 1002,1 hPa 0,0 l/m 0,5 km/h O-SO -0,3 C 0,7 C 3,2 km/h
03.02.2009 22:00 0,7 C 93 % 1002,1 hPa 0,0 l/m 1,3 km/h O-SO -0,3 C 0,7 C 5,2 km/h
03.02.2009 23:00 1,2 C 94 % 1001,8 hPa 0,0 l/m 1,0 km/h S-SO 0,3 C 1,2 C 4,0 km/h
04.02.2009 00:00 1,6 C 93 % 1001,3 hPa 0,0 l/m 1,9 km/h S-SO 0,7 C 1,6 C 8,1 km/h
04.02.2009 01:00 1,8 C 93 % 1000,6 hPa 0,0 l/m 1,9 km/h S-SO 0,8 C 1,8 C 8,4 km/h
04.02.2009 02:00 2,2 C 93 % 1000,0 hPa 0,0 l/m 1,5 km/h O-SO 1,2 C 2,2 C 8,1 km/h
04.02.2009 03:00 2,2 C 93 % 999,7 hPa 0,0 l/m 0,4 km/h N 1,2 C 2,2 C 4,0 km/h
04.02.2009 04:00 2,5 C 94 % 999,2 hPa 0,0 l/m 1,5 km/h SO 1,6 C 2,5 C 6,4 km/h
04.02.2009 05:00 2,5 C 94 % 999,1 hPa 0,0 l/m 0,8 km/h O 1,7 C 2,5 C 5,2 km/h
04.02.2009 06:00 2,4 C 94 % 999,2 hPa 0,3 l/m 0,9 km/h SO 1,6 C 2,4 C 5,2 km/h
04.02.2009 07:00 2,4 C 94 % 999,4 hPa 1,2 l/m 0,1 km/h N 1,5 C 2,4 C 1,6 km/h
04.02.2009 08:00 2,3 C 94 % 999,8 hPa 0,3 l/m 0,0 km/h N 1,4 C 2,3 C 0,0 km/h
04.02.2009 09:00 2,4 C 94 % 1000,1 hPa 0,3 l/m 0,0 km/h N 1,5 C 2,4 C 0,8 km/h
04.02.2009 10:00 2,6 C 94 % 1000,2 hPa 1,2 l/m 0,0 km/h N 1,7 C 2,6 C 0,0 km/h
04.02.2009 11:00 3,0 C 94 % 1000,2 hPa 0,3 l/m 0,0 km/h N 2,1 C 3,0 C 0,0 km/h
04.02.2009 12:00 3,4 C 94 % 1000,0 hPa 0,0 l/m 0,4 km/h W-NW 2,5 C 3,4 C 2,4 km/h
04.02.2009 13:00 3,7 C 94 % 999,6 hPa 0,0 l/m 0,9 km/h N 2,8 C 3,7 C 4,0 km/h
04.02.2009 14:00 3,9 C 94 % 999,3 hPa 0,0 l/m 0,9 km/h W-NW 3,0 C 3,9 C 4,0 km/h
04.02.2009 15:00 3,9 C 94 % 999,3 hPa 0,0 l/m 0,6 km/h N 3,0 C 3,9 C 3,6 km/h
04.02.2009 16:00 3,8 C 93 % 999,5 hPa 0,0 l/m 0,5 km/h W 2,7 C 3,8 C 3,6 km/h
04.02.2009 17:00 3,7 C 93 % 1000,0 hPa 0,0 l/m 0,5 km/h N 2,6 C 3,7 C 2,8 km/h
04.02.2009 18:00 3,5 C 92 % 1000,4 hPa 0,0 l/m 0,2 km/h N 2,3 C 3,5 C 1,6 km/h
04.02.2009 19:00 3,5 C 92 % 1000,6 hPa 0,0 l/m 0,2 km/h N 2,3 C 3,5 C 2,4 km/h
04.02.2009 20:00 3,3 C 92 % 1000,9 hPa 0,0 l/m 0,0 km/h N 2,2 C 3,3 C 0,0 km/h
04.02.2009 21:00 3,2 C 92 % 1001,3 hPa 0,0 l/m 0,0 km/h N 2,0 C 3,2 C 0,4 km/h
04.02.2009 22:00 3,1 C 92 % 1001,5 hPa 0,0 l/m 0,0 km/h N 1,9 C 3,1 C 0,8 km/h
04.02.2009 23:00 3,0 C 92 % 1001,8 hPa 0,0 l/m 0,5 km/h W-SW 1,8 C 3,0 C 2,4 km/h
05.02.2009 00:00 2,5 C 92 % 1002,0 hPa 0,0 l/m 2,3 km/h NW 1,4 C 2,5 C 7,2 km/h
05.02.2009 01:00 2,0 C 92 % 1002,3 hPa 0,0 l/m 1,8 km/h N-NW 0,9 C 2,0 C 5,6 km/h
05.02.2009 02:00 1,8 C 92 % 1002,6 hPa 0,0 l/m 1,0 km/h N-NW 0,6 C 1,8 C 4,4 km/h
05.02.2009 03:00 1,5 C 92 % 1002,5 hPa 0,0 l/m 1,0 km/h N-NW 0,3 C 1,5 C 4,0 km/h
05.02.2009 04:00 1,5 C 92 % 1002,7 hPa 0,0 l/m 0,7 km/h N 0,3 C 1,5 C 4,0 km/h
05.02.2009 05:00 1,4 C 92 % 1002,7 hPa 0,0 l/m 0,1 km/h N 0,3 C 1,4 C 1,2 km/h
05.02.2009 06:00 1,4 C 92 % 1003,3 hPa 0,0 l/m 0,0 km/h N 0,2 C 1,4 C 0,4 km/h
05.02.2009 07:00 1,4 C 92 % 1003,6 hPa 0,0 l/m 0,1 km/h N 0,3 C 1,4 C 1,2 km/h
05.02.2009 08:00 1,7 C 93 % 1003,8 hPa 0,0 l/m 0,2 km/h SW 0,7 C 1,7 C 3,6 km/h
05.02.2009 09:00 2,0 C 93 % 1004,1 hPa 0,0 l/m 1,7 km/h S 1,0 C 2,0 C 6,8 km/h
05.02.2009 10:00 2,3 C 93 % 1004,3 hPa 0,0 l/m 1,6 km/h S 1,3 C 2,3 C 7,6 km/h
05.02.2009 11:00 2,5 C 93 % 1004,0 hPa 0,0 l/m 0,7 km/h SO 1,5 C 2,5 C 5,2 km/h
05.02.2009 12:00 2,9 C 93 % 1003,5 hPa 0,0 l/m 1,3 km/h SO 1,9 C 2,9 C 6,8 km/h
05.02.2009 13:00 2,8 C 93 % 1003,1 hPa 0,0 l/m 1,6 km/h O 1,7 C 2,8 C 7,2 km/h
05.02.2009 14:00 2,6 C 92 % 1002,7 hPa 0,0 l/m 2,1 km/h O 1,5 C 2,6 C 7,6 km/h
05.02.2009 15:00 2,6 C 93 % 1002,5 hPa 0,0 l/m 1,1 km/h O-SO 1,6 C 2,6 C 6,4 km/h
05.02.2009 16:00 2,5 C 93 % 1003,1 hPa 0,0 l/m 1,7 km/h O-SO 1,4 C 2,5 C 6,0 km/h
05.02.2009 17:00 2,3 C 93 % 1003,3 hPa 0,0 l/m 2,0 km/h O 1,3 C 2,3 C 5,6 km/h
05.02.2009 18:00 2,2 C 93 % 1003,5 hPa 0,0 l/m 0,6 km/h O 1,1 C 2,2 C 3,6 km/h
05.02.2009 19:00 2,1 C 93 % 1003,5 hPa 0,0 l/m 0,0 km/h N 1,1 C 2,1 C 0,4 km/h
05.02.2009 20:00 2,1 C 93 % 1003,5 hPa 0,0 l/m 1,0 km/h SW 1,1 C 2,1 C 4,0 km/h
05.02.2009 21:00 2,2 C 93 % 1003,3 hPa 0,0 l/m 0,8 km/h SW 1,2 C 2,2 C 3,6 km/h
05.02.2009 22:00 2,1 C 93 % 1003,2 hPa 0,0 l/m 0,3 km/h N 1,2 C 2,1 C 3,6 km/h
05.02.2009 23:00 2,1 C 93 % 1003,1 hPa 0,0 l/m 0,2 km/h N 1,1 C 2,1 C 1,6 km/h
06.02.2009 00:00 2,1 C 93 % 1002,7 hPa 0,0 l/m 0,9 km/h S 1,2 C 2,1 C 4,8 km/h
06.02.2009 01:00 2,2 C 93 % 1002,3 hPa 0,0 l/m 1,2 km/h S 1,2 C 2,2 C 4,8 km/h
06.02.2009 02:00 2,3 C 93 % 1002,2 hPa 0,0 l/m 0,2 km/h N 1,2 C 2,3 C 2,4 km/h
06.02.2009 03:00 2,3 C 93 % 1001,4 hPa 0,0 l/m 0,2 km/h N 1,2 C 2,3 C 3,2 km/h
06.02.2009 04:00 2,2 C 93 % 1000,7 hPa 0,0 l/m 1,0 km/h S 1,2 C 2,2 C 5,6 km/h
06.02.2009 05:00 2,0 C 93 % 1000,4 hPa 0,0 l/m 2,5 km/h S 0,9 C 2,0 C 8,8 km/h
06.02.2009 06:00 1,6 C 94 % 1000,0 hPa 0,0 l/m 1,2 km/h S 0,6 C 1,6 C 6,4 km/h
06.02.2009 07:00 1,4 C 94 % 999,8 hPa 0,0 l/m 0,2 km/h N 0,5 C 1,4 C 2,0 km/h
06.02.2009 08:00 1,5 C 94 % 999,4 hPa 0,0 l/m 0,2 km/h N 0,7 C 1,5 C 3,2 km/h
06.02.2009 09:00 1,9 C 94 % 999,2 hPa 0,0 l/m 0,3 km/h N 1,0 C 1,9 C 4,0 km/h
06.02.2009 10:00 2,1 C 94 % 999,0 hPa 0,0 l/m 0,3 km/h N 1,2 C 2,1 C 3,6 km/h
06.02.2009 11:00 2,4 C 94 % 998,6 hPa 0,0 l/m 0,7 km/h SW 1,4 C 2,4 C 4,4 km/h
06.02.2009 12:00 3,0 C 92 % 998,1 hPa 0,0 l/m 0,3 km/h W 1,8 C 3,0 C 2,4 km/h
06.02.2009 13:00 4,0 C 90 % 997,5 hPa 0,0 l/m 2,8 km/h N-NO 2,4 C 4,0 C 7,2 km/h
06.02.2009 14:00 4,5 C 89 % 996,7 hPa 0,0 l/m 3,4 km/h NO 2,9 C 4,5 C 8,4 km/h
06.02.2009 15:00 4,5 C 88 % 996,5 hPa 0,0 l/m 2,0 km/h N-NW 2,6 C 4,5 C 5,6 km/h
06.02.2009 16:00 4,1 C 88 % 996,4 hPa 0,0 l/m 0,1 km/h N 2,2 C 4,1 C 1,2 km/h
06.02.2009 17:00 2,9 C 87 % 996,3 hPa 0,0 l/m 0,0 km/h N 1,0 C 2,9 C 0,0 km/h
06.02.2009 18:00 1,7 C 88 % 996,4 hPa 0,0 l/m 0,0 km/h N -0,1 C 1,7 C 0,4 km/h
06.02.2009 19:00 0,6 C 89 % 996,4 hPa 0,0 l/m 0,4 km/h N-NW -1,0 C 0,6 C 4,0 km/h
06.02.2009 20:00 0,6 C 91 % 995,9 hPa 0,0 l/m 0,5 km/h N -0,6 C 0,6 C 4,8 km/h
06.02.2009 21:00 0,5 C 92 % 995,4 hPa 0,0 l/m 1,1 km/h O -0,7 C 0,5 C 4,8 km/h
06.02.2009 22:00 2,2 C 94 % 995,0 hPa 0,0 l/m 1,2 km/h O-SO 1,2 C 2,2 C 4,8 km/h
06.02.2009 23:00 5,3 C 95 % 994,7 hPa 0,0 l/m 2,3 km/h O-NO 4,5 C 5,3 C 7,6 km/h
07.02.2009 00:00 5,9 C 91 % 994,3 hPa 0,0 l/m 0,9 km/h NO 4,5 C 5,9 C 6,0 km/h
07.02.2009 01:00 5,7 C 89 % 993,8 hPa 0,0 l/m 1,7 km/h O 4,0 C 5,7 C 6,0 km/h
07.02.2009 02:00 6,9 C 85 % 993,1 hPa 0,0 l/m 1,6 km/h S-SO 4,5 C 6,9 C 8,4 km/h
07.02.2009 03:00 6,9 C 85 % 992,5 hPa 0,0 l/m 1,5 km/h S-SW 4,5 C 6,9 C 8,0 km/h
07.02.2009 04:00 5,9 C 86 % 992,6 hPa 0,0 l/m 0,3 km/h O 3,7 C 5,9 C 4,0 km/h
07.02.2009 05:00 6,2 C 89 % 992,4 hPa 0,0 l/m 1,9 km/h O 4,5 C 6,2 C 7,6 km/h
07.02.2009 06:00 7,7 C 84 % 991,7 hPa 0,0 l/m 3,6 km/h O-NO 5,1 C 7,7 C 12,9 km/h
07.02.2009 07:00 7,7 C 83 % 991,0 hPa 0,0 l/m 6,8 km/h SO 4,9 C 7,2 C 25,8 km/h
07.02.2009 08:00 7,9 C 83 % 990,8 hPa 0,0 l/m 5,8 km/h S-SO 5,2 C 7,8 C 24,9 km/h
07.02.2009 09:00 9,3 C 79 % 990,9 hPa 0,0 l/m 11,2 km/h SO 5,9 C 6,2 C 33,0 km/h
07.02.2009 10:00 10,6 C 75 % 991,1 hPa 0,0 l/m 8,5 km/h S-SO 6,4 C 9,2 C 25,7 km/h
07.02.2009 11:00 11,3 C 73 % 990,3 hPa 0,0 l/m 9,2 km/h S-SO 6,7 C 9,5 C 30,6 km/h
07.02.2009 12:00 12,1 C 72 % 989,6 hPa 0,0 l/m 10,7 km/h S-SO 7,1 C 9,6 C 33,8 km/h
07.02.2009 13:00 12,7 C 70 % 989,5 hPa 0,0 l/m 13,2 km/h SO 7,3 C 9,3 C 39,0 km/h
07.02.2009 14:00 12,5 C 69 % 989,4 hPa 0,0 l/m 4,5 km/h S-SW 7,1 C 12,5 C 16,1 km/h
07.02.2009 15:00 12,3 C 70 % 988,9 hPa 0,0 l/m 4,5 km/h SO 7,0 C 12,3 C 16,9 km/h
07.02.2009 16:00 11,4 C 73 % 989,2 hPa 0,0 l/m 1,7 km/h O-SO 6,6 C 11,4 C 7,2 km/h
07.02.2009 17:00 10,9 C 74 % 989,5 hPa 0,0 l/m 2,1 km/h O 6,4 C 10,9 C 8,1 km/h
07.02.2009 18:00 10,5 C 75 % 989,6 hPa 0,0 l/m 3,2 km/h S-SO 6,1 C 10,5 C 14,1 km/h
07.02.2009 19:00 10,1 C 76 % 989,6 hPa 0,0 l/m 4,6 km/h S 6,0 C 10,1 C 13,7 km/h
07.02.2009 20:00 9,8 C 78 % 989,5 hPa 0,0 l/m 3,0 km/h O-SO 6,1 C 9,8 C 10,5 km/h
07.02.2009 21:00 8,5 C 81 % 989,6 hPa 0,0 l/m 0,4 km/h N 5,5 C 8,5 C 3,6 km/h
07.02.2009 22:00 7,4 C 86 % 989,6 hPa 0,0 l/m 0,1 km/h N 5,2 C 7,4 C 1,2 km/h
07.02.2009 23:00 7,0 C 86 % 990,2 hPa 0,0 l/m 1,2 km/h N-NW 4,7 C 7,0 C 3,2 km/h
08.02.2009 00:00 6,8 C 74 % 990,4 hPa 0,0 l/m 4,2 km/h W 2,5 C 6,8 C 11,7 km/h
08.02.2009 01:00 6,6 C 74 % 990,5 hPa 0,3 l/m 5,1 km/h W 2,3 C 6,6 C 15,3 km/h
08.02.2009 02:00 5,5 C 82 % 990,3 hPa 0,6 l/m 6,7 km/h W-SW 2,6 C 5,2 C 17,3 km/h
08.02.2009 03:00 5,1 C 85 % 990,4 hPa 1,5 l/m 3,9 km/h NW 2,7 C 5,1 C 10,1 km/h
08.02.2009 04:00 4,5 C 86 % 990,8 hPa 0,6 l/m 5,0 km/h W 2,3 C 4,1 C 16,9 km/h
08.02.2009 05:00 3,7 C 84 % 991,0 hPa 0,0 l/m 9,9 km/h W-SW 1,2 C 0,8 C 26,6 km/h
08.02.2009 06:00 3,5 C 84 % 991,7 hPa 0,6 l/m 3,7 km/h NW 1,0 C 3,5 C 13,3 km/h
08.02.2009 07:00 2,9 C 88 % 992,2 hPa 0,9 l/m 4,5 km/h W-SW 1,2 C 2,9 C 16,1 km/h
08.02.2009 08:00 2,9 C 88 % 992,8 hPa 0,3 l/m 5,9 km/h W 1,2 C 2,9 C 17,3 km/h
08.02.2009 09:00 3,2 C 85 % 993,4 hPa 0,0 l/m 4,6 km/h O-NO 0,9 C 3,1 C 16,1 km/h
08.02.2009 10:00 3,1 C 86 % 993,9 hPa 1,5 l/m 6,8 km/h W 1,1 C 2,5 C 20,5 km/h
08.02.2009 11:00 3,1 C 87 % 994,3 hPa 1,2 l/m 10,8 km/h W 1,2 C -0,6 C 28,6 km/h
08.02.2009 12:00 3,2 C 88 % 994,9 hPa 0,0 l/m 9,8 km/h W 1,4 C 0,3 C 25,4 km/h
08.02.2009 13:00 3,3 C 87 % 995,3 hPa 0,6 l/m 12,4 km/h W-NW 1,3 C -1,4 C 28,2 km/h
08.02.2009 14:00 3,0 C 87 % 996,0 hPa 0,9 l/m 14,6 km/h NW 1,0 C -3,1 C 30,6 km/h
08.02.2009 15:00 2,4 C 88 % 997,4 hPa 2,1 l/m 15,4 km/h W-NW 0,6 C -4,3 C 30,6 km/h
08.02.2009 16:00 1,9 C 89 % 998,5 hPa 1,8 l/m 15,1 km/h W-NW 0,3 C -4,7 C 31,8 km/h
08.02.2009 17:00 1,6 C 90 % 999,8 hPa 2,4 l/m 13,3 km/h W-NW 0,1 C -4,0 C 27,4 km/h
08.02.2009 18:00 1,7 C 90 % 1000,5 hPa 1,2 l/m 14,4 km/h NW 0,3 C -4,6 C 30,6 km/h
08.02.2009 19:00 1,7 C 90 % 1001,5 hPa 1,2 l/m 14,7 km/h NW 0,2 C -4,8 C 27,4 km/h
08.02.2009 20:00 1,7 C 90 % 1002,5 hPa 0,3 l/m 13,3 km/h N-NW 0,2 C -3,9 C 25,3 km/h
08.02.2009 21:00 2,0 C 85 % 1003,3 hPa 0,3 l/m 15,0 km/h NW -0,3 C -4,5 C 30,6 km/h
08.02.2009 22:00 2,1 C 80 % 1004,2 hPa 0,0 l/m 18,0 km/h NW -1,0 C -6,0 C 38,2 km/h
08.02.2009 23:00 1,8 C 78 % 1004,9 hPa 0,0 l/m 16,5 km/h W -1,6 C -5,5 C 34,2 km/h
Min-Datum _ 02.02.09 07.02.09 07.02.09 - 03.02.09 - 02.02.09 08.02.09 03.02.09
_ Min-Zeit 00:00 14:45 15:30 - 20:45 - 00:00 22:15 20:45
Minimum _ -0,7 C 68 % 988,8 hPa - 0,0 km/h - -2,0 C -6,9 C 0,0 km/h
Max-Datum _ 07.02.09 06.02.09 02.02.09 08.02.09 08.02.09 - 07.02.09 07.02.09 07.02.09
_ Max-Zeit 13:45 23:00 10:15 17:00 22:15 - 13:00 14:45 13:00
Maximum _ 13,0 C 99 % 1016,2 hPa 2,4 l/m 19,9 km/h
NW
- 7,4 C 12,9 C 48,3 km/h
S
Durchschnitt _ 3,1 C 90 % 1001,3 hPa #26,4 l/m 3,1 km/h S-SO 1,4 C 2,5 C 9,9 km/h